World Yacht's Princess — WCG6143 — position and weather

sailwx.info

Track history (hours):
 
Tides and Currents Weather Stations Pressure Air Temp Water Temp Dewpoint Dewpoint Depression Visibility Wind Speed Wind Dir Waves Ship Positions

World Yacht's Princess

Owner: World Yacht LLC Pier 81 West 41 Street New York ,NY 10036, NEW YORK, NY. More information available from US FCC via Universal Licensing System and Coast Guard Vessel Documentation Center.

Last reported at 2018-May-20 01:04 UTC. Time now 2018-May-20 10:24 UTC.
Position N 40°46' W 074°00'.

Length 42 m; draft 2.3 m.

Type: Passenger vessel. MMSI: 366929730.

Date/timePositionNaut miles runAvg speedWind from/ knotsBaromVisibWave heightAir tempDewpointWater temp
2018-May-20 01:04N 40°46' W 074°00'0 0.0
2018-May-20 01:00N 40°46' W 074°00'2 3.6
2018-May-20 00:30N 40°44' W 074°01'2 4.2
2018-May-20 00:00N 40°42' W 074°02'1 2.1
2018-May-19 23:30N 40°43' W 074°01'3 5.4
2018-May-19 22:59N 40°46' W 074°00'0 0.0
2018-May-19 22:29N 40°46' W 074°00'0 0.0
2018-May-19 21:59N 40°46' W 074°00'0 0.0
2018-May-19 21:29N 40°46' W 074°00'0 0.0
2018-May-19 20:59N 40°46' W 074°00'0 0.0
2018-May-19 20:22N 40°46' W 074°00'0 0.0
2018-May-19 19:59N 40°46' W 074°00'0 0.0
2018-May-19 01:03N 40°46' W 074°00'0 0.0
2018-May-19 01:00N 40°46' W 074°00'1 2.3
2018-May-19 00:30N 40°45' W 074°01'3 5.4
2018-May-19 00:00N 40°42' W 074°02'1 2.0
2018-May-18 23:30N 40°43' W 074°02'3 5.6
2018-May-18 23:00N 40°46' W 074°00'0 0.0
2018-May-18 22:27N 40°46' W 074°00'0 0.0
2018-May-18 21:57N 40°46' W 074°00'0 0.0
2018-May-18 21:27N 40°46' W 074°00'0 0.0
2018-May-18 20:57N 40°46' W 074°00'0 0.0
2018-May-18 20:15N 40°46' W 074°00'0 0.0
2018-May-18 03:20N 40°46' W 074°00'3 9.1
2018-May-18 03:00N 40°43' W 074°01'1 1.2
2018-May-18 02:29N 40°42' W 074°02'0 0.7
2018-May-18 02:00N 40°43' W 074°02'0 0.5
2018-May-18 01:30N 40°43' W 074°02'1 1.7
2018-May-18 01:00N 40°42' W 074°02'2 4.2
2018-May-18 00:28N 40°43' W 073°59'2 3.9
2018-May-17 23:59N 40°44' W 073°58'3 7.1
2018-May-17 23:30N 40°42' W 074°01'1 1.4
2018-May-17 22:58N 40°42' W 074°02'0 0.0
2018-May-17 22:28N 40°42' W 074°02'2 3.5
2018-May-17 22:01N 40°44' W 074°01'2 3.5
2018-May-17 21:27N 40°46' W 074°00'0 0.0
2018-May-17 01:05N 40°46' W 074°00'0 0.0
2018-May-17 00:50N 40°46' W 074°00'1 4.4
2018-May-17 00:30N 40°44' W 074°01'3 6.5
2018-May-17 00:00N 40°41' W 074°02'3 5.8
2018-May-16 23:30N 40°44' W 074°01'  
2018-May-14 01:25N 40°46' W 074°00'0 0.0
2018-May-14 01:00N 40°46' W 074°00'3 5.1
2018-May-14 00:30N 40°43' W 074°01'2 4.5
2018-May-14 00:00N 40°41' W 074°02'3 5.8
2018-May-13 23:31N 40°44' W 074°01'2 3.7
2018-May-13 23:00N 40°46' W 074°00'0 0.0
2018-May-13 22:12N 40°46' W 074°00'0 0.0
2018-May-13 22:00N 40°46' W 074°00'0 0.0
2018-May-13 21:30N 40°46' W 074°00'0 0.0
2018-May-13 19:54N 40°46' W 074°00'0 0.0
2018-May-13 19:24N 40°46' W 074°00'0 0.0
2018-May-13 19:00N 40°46' W 074°00'0 0.0
2018-May-13 18:30N 40°46' W 074°00'2 3.3
2018-May-13 18:00N 40°44' W 074°01'2 4.4
2018-May-13 17:30N 40°42' W 074°02'1 1.8
2018-May-13 17:00N 40°43' W 074°02'3 5.9
2018-May-13 16:30N 40°46' W 074°00'0 0.0
2018-May-13 15:49N 40°46' W 074°00'0 0.0
2018-May-13 15:13N 40°46' W 074°00'0 0.0
2018-May-13 14:43N 40°46' W 074°00'0 0.0
2018-May-13 00:53N 40°46' W 074°00'1 3.8
2018-May-13 00:30N 40°44' W 074°01'3 6.1
2018-May-13 00:00N 40°41' W 074°02'2 4.6
2018-May-12 23:30N 40°44' W 074°01'2 3.8
2018-May-12 22:56N 40°46' W 074°00'0 0.0
2018-May-12 22:25N 40°46' W 074°00'0 0.0
2018-May-12 01:46N 40°46' W 074°00'0 0.0
2018-May-12 01:06N 40°46' W 074°00'0 0.2
2018-May-12 01:00N 40°46' W 074°00'2 3.8
2018-May-12 00:30N 40°44' W 074°01'3 5.6
2018-May-12 00:00N 40°41' W 074°02'3 5.1
2018-May-11 23:30N 40°44' W 074°01'2 0.1
2018-May-11 00:43N 40°46' W 074°00'1 3.4
2018-May-11 00:29N 40°45' W 074°01'3 6.8
2018-May-11 00:00N 40°42' W 074°02'2 3.3
2018-May-10 23:28N 40°44' W 074°01'  
Track history (hours):
 
Tides and Currents Weather Stations Pressure Air Temp Water Temp Dewpoint Dewpoint Depression Visibility Wind Speed Wind Dir Waves Ship Positions

World Yacht's Princess

Owner: World Yacht LLC Pier 81 West 41 Street New York ,NY 10036, NEW YORK, NY. More information available from US FCC via Universal Licensing System and Coast Guard Vessel Documentation Center.

Last reported at 2018-May-20 01:04 UTC. Time now 2018-May-20 10:24 UTC.
Position N 40°46' W 074°00'.

Length 42 m; draft 2.3 m.

Type: Passenger vessel. MMSI: 366929730.

Date/timePositionNaut miles runAvg speedWind from/ knotsBaromVisibWave heightAir tempDewpointWater temp
2018-May-20 01:04N 40°46' W 074°00'0 0.0
2018-May-20 01:00N 40°46' W 074°00'2 3.6
2018-May-20 00:30N 40°44' W 074°01'2 4.2
2018-May-20 00:00N 40°42' W 074°02'1 2.1
2018-May-19 23:30N 40°43' W 074°01'3 5.4
2018-May-19 22:59N 40°46' W 074°00'0 0.0
2018-May-19 22:29N 40°46' W 074°00'0 0.0
2018-May-19 21:59N 40°46' W 074°00'0 0.0
2018-May-19 21:29N 40°46' W 074°00'0 0.0
2018-May-19 20:59N 40°46' W 074°00'0 0.0
2018-May-19 20:22N 40°46' W 074°00'0 0.0
2018-May-19 19:59N 40°46' W 074°00'0 0.0
2018-May-19 01:03N 40°46' W 074°00'0 0.0
2018-May-19 01:00N 40°46' W 074°00'1 2.3
2018-May-19 00:30N 40°45' W 074°01'3 5.4
2018-May-19 00:00N 40°42' W 074°02'1 2.0
2018-May-18 23:30N 40°43' W 074°02'3 5.6
2018-May-18 23:00N 40°46' W 074°00'0 0.0
2018-May-18 22:27N 40°46' W 074°00'0 0.0
2018-May-18 21:57N 40°46' W 074°00'0 0.0
2018-May-18 21:27N 40°46' W 074°00'0 0.0
2018-May-18 20:57N 40°46' W 074°00'0 0.0
2018-May-18 20:15N 40°46' W 074°00'0 0.0
2018-May-18 03:20N 40°46' W 074°00'3 9.1
2018-May-18 03:00N 40°43' W 074°01'1 1.2
2018-May-18 02:29N 40°42' W 074°02'0 0.7
2018-May-18 02:00N 40°43' W 074°02'0 0.5
2018-May-18 01:30N 40°43' W 074°02'1 1.7
2018-May-18 01:00N 40°42' W 074°02'2 4.2
2018-May-18 00:28N 40°43' W 073°59'2 3.9
2018-May-17 23:59N 40°44' W 073°58'3 7.1
2018-May-17 23:30N 40°42' W 074°01'1 1.4
2018-May-17 22:58N 40°42' W 074°02'0 0.0
2018-May-17 22:28N 40°42' W 074°02'2 3.5
2018-May-17 22:01N 40°44' W 074°01'2 3.5
2018-May-17 21:27N 40°46' W 074°00'0 0.0
2018-May-17 01:05N 40°46' W 074°00'0 0.0
2018-May-17 00:50N 40°46' W 074°00'1 4.4
2018-May-17 00:30N 40°44' W 074°01'3 6.5
2018-May-17 00:00N 40°41' W 074°02'3 5.8
2018-May-16 23:30N 40°44' W 074°01'  
2018-May-14 01:25N 40°46' W 074°00'0 0.0
2018-May-14 01:00N 40°46' W 074°00'3 5.1
2018-May-14 00:30N 40°43' W 074°01'2 4.5
2018-May-14 00:00N 40°41' W 074°02'3 5.8
2018-May-13 23:31N 40°44' W 074°01'2 3.7
2018-May-13 23:00N 40°46' W 074°00'0 0.0
2018-May-13 22:12N 40°46' W 074°00'0 0.0
2018-May-13 22:00N 40°46' W 074°00'0 0.0
2018-May-13 21:30N 40°46' W 074°00'0 0.0
2018-May-13 19:54N 40°46' W 074°00'0 0.0
2018-May-13 19:24N 40°46' W 074°00'0 0.0
2018-May-13 19:00N 40°46' W 074°00'0 0.0
2018-May-13 18:30N 40°46' W 074°00'2 3.3
2018-May-13 18:00N 40°44' W 074°01'2 4.4
2018-May-13 17:30N 40°42' W 074°02'1 1.8
2018-May-13 17:00N 40°43' W 074°02'3 5.9
2018-May-13 16:30N 40°46' W 074°00'0 0.0
2018-May-13 15:49N 40°46' W 074°00'0 0.0
2018-May-13 15:13N 40°46' W 074°00'0 0.0
2018-May-13 14:43N 40°46' W 074°00'0 0.0
2018-May-13 00:53N 40°46' W 074°00'1 3.8
2018-May-13 00:30N 40°44' W 074°01'3 6.1
2018-May-13 00:00N 40°41' W 074°02'2 4.6
2018-May-12 23:30N 40°44' W 074°01'2 3.8
2018-May-12 22:56N 40°46' W 074°00'0 0.0
2018-May-12 22:25N 40°46' W 074°00'0 0.0
2018-May-12 01:46N 40°46' W 074°00'0 0.0
2018-May-12 01:06N 40°46' W 074°00'0 0.2
2018-May-12 01:00N 40°46' W 074°00'2 3.8
2018-May-12 00:30N 40°44' W 074°01'3 5.6
2018-May-12 00:00N 40°41' W 074°02'3 5.1
2018-May-11 23:30N 40°44' W 074°01'2 0.1
2018-May-11 00:43N 40°46' W 074°00'1 3.4
2018-May-11 00:29N 40°45' W 074°01'3 6.8
2018-May-11 00:00N 40°42' W 074°02'2 3.3
2018-May-10 23:28N 40°44' W 074°01'  

Dump ship's entire track history